メインページ
METAR-TAF:

METAR-TAF

空港 :

Kindersley, サスカチュワン州, カナダ

緯度: 51-31N, 経度: 109-10W, 海抜: 694m

現時点の気象観測

当レポートは30分前の17:00(UTC)に作成
西の風 10kt、最大18ktの突風を伴う
気温 21°C
湿度 64%
気圧 1024 hPa
視程: 24.1km
高度5000ftの雲はほとんどない

METAR: CYKY 211700Z 27010G18KT 15SM FEW050 21/14 A3025 RMK CU2 SLP246 DENSITY ALT 3100FT

時間: 11:30 (17:30 UTC)


TAF: 見つかりません

4,000以上の空港の気象観測と天気予報(METAR報とTAF報)

利用可能な観測所は地図上に黄色い丸と赤い丸で示す。

丸の上にカーソルを重ねると観測所名を参照できる。

次にクリックすると気象観測と天気予報を参照できる。

マップの切り替え:黒色「×」印の緑ボタンをクリックして拡大、「-」印の緑ボタンをクリックして縮小、緑色の三角印をクリックして隣りの地図に切り替え


METAR-TAF: